Time;durP1;ratioP1;P1;durP2;ratioP2;P2;SDS_P1;SDS_P2;PMS_P1;PMS_P2;Temp;Humidity;BMP_temperature;BMP_pressure;BME280_temperature;BME280_humidity;BME280_pressure;Samples;Min_cycle;Max_cycle;Signal;HPM_P1;HPM_P2
2021/05/02 00:00:27;;;;;;;10.77;8.53;;;8.00;1.00;;;;;;5104044;27;20446;-71
2021/05/02 00:02:53;;;;;;;13.27;10.43;;;8.00;1.00;;;;;;5104797;27;20444;-71
2021/05/02 00:05:21;;;;;;;12.20;10.20;;;7.90;1.00;;;;;;5101846;27;20553;-71
2021/05/02 00:07:47;;;;;;;10.30;8.33;;;7.90;1.00;;;;;;5106922;27;20453;-71
2021/05/02 00:10:14;;;;;;;11.03;9.50;;;7.90;1.00;;;;;;5107900;27;20468;-71
2021/05/02 00:12:41;;;;;;;11.27;9.00;;;7.90;1.00;;;;;;5103040;27;20785;-71
2021/05/02 00:15:10;;;;;;;13.83;10.87;;;7.90;1.00;;;;;;5101208;27;21037;-71
2021/05/02 00:17:38;;;;;;;15.73;11.17;;;7.60;1.00;;;;;;5106325;27;20444;-71
2021/05/02 00:20:05;;;;;;;14.13;10.60;;;7.60;1.00;;;;;;5083286;27;20451;-71
2021/05/02 00:22:33;;;;;;;13.83;11.00;;;7.50;1.00;;;;;;5098618;27;20544;-71
2021/05/02 00:24:59;;;;;;;11.87;9.90;;;7.50;1.00;;;;;;5104713;27;20448;-71
2021/05/02 00:27:28;;;;;;;13.40;11.00;;;7.50;1.00;;;;;;5089505;27;20448;-72
2021/05/02 00:29:54;;;;;;;13.33;10.70;;;7.40;1.00;;;;;;5102101;27;21701;-71
2021/05/02 00:32:21;;;;;;;14.17;11.07;;;7.30;1.00;;;;;;5087369;27;20450;-71
2021/05/02 00:34:48;;;;;;;13.93;11.07;;;7.30;1.00;;;;;;5081039;27;21147;-71
2021/05/02 00:37:15;;;;;;;14.27;10.60;;;7.20;1.00;;;;;;5104853;27;20440;-71
2021/05/02 00:39:41;;;;;;;15.17;12.00;;;7.30;1.00;;;;;;5105257;27;21071;-72
2021/05/02 00:42:09;;;;;;;14.23;11.20;;;7.30;1.00;;;;;;5097366;27;20461;-71
2021/05/02 00:44:45;;;;;;;14.90;11.30;;;7.30;1.00;;;;;;5100253;27;20540;-71
2021/05/02 00:47:33;;;;;;;14.77;11.60;;;7.30;1.00;;;;;;5097012;27;20538;-71
2021/05/02 00:50:09;;;;;;;15.13;10.77;;;7.20;1.00;;;;;;5094811;27;20604;-72
2021/05/02 00:52:51;;;;;;;16.93;12.77;;;7.20;1.00;;;;;;5102283;27;20439;-71
2021/05/02 00:55:26;;;;;;;16.40;12.00;;;7.10;1.00;;;;;;5103011;27;20446;-71
2021/05/02 00:58:01;;;;;;;18.97;12.50;;;7.10;1.00;;;;;;5104126;27;23543;-72
2021/05/02 01:00:30;;;;;;;15.27;12.17;;;7.10;1.00;;;;;;5099325;27;20443;-71
2021/05/02 01:02:58;;;;;;;13.63;11.40;;;7.20;1.00;;;;;;5101979;27;20473;-71
2021/05/02 01:05:27;;;;;;;15.57;11.17;;;7.20;1.00;;;;;;5092219;27;20470;-71
2021/05/02 01:07:56;;;;;;;15.30;11.83;;;7.30;1.00;;;;;;5096100;27;20497;-71
2021/05/02 01:10:22;;;;;;;15.57;11.90;;;7.20;1.00;;;;;;5099681;27;20495;-71
2021/05/02 01:12:56;;;;;;;20.30;14.27;;;7.20;1.00;;;;;;5094906;27;20438;-71
2021/05/02 01:15:32;;;;;;;15.83;13.20;;;7.20;1.00;;;;;;5100133;27;20181;-71
2021/05/02 01:18:01;;;;;;;20.20;12.73;;;7.20;1.00;;;;;;5098309;27;20447;-71
2021/05/02 01:20:28;;;;;;;17.63;13.13;;;7.20;1.00;;;;;;5102369;27;20584;-71
2021/05/02 01:22:59;;;;;;;16.43;12.27;;;7.10;1.00;;;;;;5102057;27;20528;-71
2021/05/02 01:25:25;;;;;;;18.47;13.27;;;7.20;1.00;;;;;;5104388;27;20449;-71
2021/05/02 01:27:56;;;;;;;16.53;12.40;;;7.20;1.00;;;;;;5105836;27;20572;-71
2021/05/02 01:30:23;;;;;;;15.63;12.70;;;7.30;1.00;;;;;;5102005;27;20499;-72
2021/05/02 01:32:49;;;;;;;18.63;11.97;;;7.30;1.00;;;;;;5077504;27;21257;-71
2021/05/02 01:35:16;;;;;;;15.43;12.90;;;7.20;1.00;;;;;;5100946;27;20471;-72
2021/05/02 01:37:43;;;;;;;16.23;13.80;;;7.10;1.00;;;;;;5102479;27;20437;-71
2021/05/02 01:40:10;;;;;;;16.90;13.50;;;7.00;1.00;;;;;;5105788;27;20502;-71
2021/05/02 01:42:36;;;;;;;21.03;13.97;;;6.90;1.00;;;;;;5105380;27;20477;-71
2021/05/02 01:45:03;;;;;;;18.70;13.90;;;6.90;1.00;;;;;;5099940;27;20942;-71
2021/05/02 01:47:31;;;;;;;18.53;13.60;;;6.90;1.00;;;;;;5094627;27;20444;-71
2021/05/02 01:50:02;;;;;;;17.13;12.10;;;6.80;1.00;;;;;;5101441;27;22423;-71
2021/05/02 01:52:30;;;;;;;19.10;13.87;;;6.90;1.00;;;;;;5087779;27;20450;-71
2021/05/02 01:54:58;;;;;;;16.63;13.93;;;6.90;1.00;;;;;;5101352;27;20455;-71
2021/05/02 01:57:29;;;;;;;19.10;14.00;;;7.00;1.00;;;;;;5102200;27;20564;-71
2021/05/02 01:59:58;;;;;;;18.57;14.67;;;7.00;1.00;;;;;;5099263;27;20520;-71
2021/05/02 02:02:27;;;;;;;19.40;13.57;;;6.90;1.00;;;;;;5100043;27;20439;-71
2021/05/02 02:04:57;;;;;;;17.37;13.47;;;6.90;1.00;;;;;;5101512;27;20441;-71
2021/05/02 02:07:24;;;;;;;23.20;12.90;;;7.00;1.00;;;;;;5097541;27;20446;-72
2021/05/02 02:09:51;;;;;;;17.20;12.43;;;6.90;1.00;;;;;;5103352;27;21452;-71
2021/05/02 02:12:17;;;;;;;19.23;13.63;;;6.80;1.00;;;;;;5103450;27;20451;-71
2021/05/02 02:14:44;;;;;;;15.50;12.10;;;6.80;1.00;;;;;;5102163;27;20449;-71
2021/05/02 02:17:10;;;;;;;17.47;12.57;;;6.90;1.00;;;;;;5102373;27;20442;-72
2021/05/02 02:19:36;;;;;;;19.27;12.97;;;6.90;1.00;;;;;;5100444;27;21104;-71
2021/05/02 02:22:03;;;;;;;16.80;12.27;;;6.90;1.00;;;;;;5101970;27;20492;-71
2021/05/02 02:24:44;;;;;;;19.53;12.50;;;6.90;1.00;;;;;;5084657;27;20469;-71
2021/05/02 02:27:11;;;;;;;18.23;11.00;;;6.90;1.00;;;;;;5104718;27;20509;-72
2021/05/02 02:29:48;;;;;;;14.00;11.73;;;7.10;1.00;;;;;;5101976;27;20481;-72
2021/05/02 02:32:16;;;;;;;15.17;11.10;;;6.90;1.00;;;;;;5105629;27;21202;-71
2021/05/02 02:34:47;;;;;;;15.47;10.87;;;7.00;1.00;;;;;;5102328;27;24661;-72
2021/05/02 02:37:18;;;;;;;16.93;10.80;;;7.10;1.00;;;;;;5100107;27;20434;-71
2021/05/02 02:39:47;;;;;;;17.33;11.03;;;7.10;1.00;;;;;;5101419;27;20450;-71
2021/05/02 02:42:14;;;;;;;15.60;10.00;;;7.00;1.00;;;;;;5098448;27;20463;-71
2021/05/02 02:44:57;;;;;;;14.10;10.80;;;6.60;1.00;;;;;;5093646;27;20442;-72
2021/05/02 02:47:25;;;;;;;16.83;10.70;;;6.70;1.00;;;;;;5096248;27;20452;-71
2021/05/02 02:49:57;;;;;;;16.20;11.40;;;6.70;1.00;;;;;;5101516;27;21188;-71
2021/05/02 02:52:25;;;;;;;16.53;11.57;;;6.90;1.00;;;;;;5103812;27;20442;-71
2021/05/02 02:55:09;;;;;;;16.03;11.63;;;6.90;1.00;;;;;;5094271;27;20529;-71
2021/05/02 02:57:48;;;;;;;14.47;11.03;;;6.90;1.00;;;;;;5096738;27;20847;-71
2021/05/02 03:00:17;;;;;;;13.33;10.07;;;7.00;1.00;;;;;;5106629;27;20450;-71
2021/05/02 03:02:48;;;;;;;13.60;11.40;;;6.90;1.00;;;;;;5101849;27;20449;-72
2021/05/02 03:05:14;;;;;;;15.03;10.17;;;7.00;1.00;;;;;;5102581;27;21179;-71
2021/05/02 03:07:41;;;;;;;13.00;10.73;;;7.00;1.00;;;;;;5102200;27;20923;-71
2021/05/02 03:10:09;;;;;;;16.50;11.57;;;6.90;1.00;;;;;;5102900;27;20556;-71
2021/05/02 03:12:38;;;;;;;14.30;11.03;;;6.90;1.00;;;;;;5104996;27;20504;-71
2021/05/02 03:15:04;;;;;;;15.50;10.87;;;6.90;1.00;;;;;;5100411;27;20437;-71
2021/05/02 03:17:31;;;;;;;13.97;10.50;;;6.80;1.00;;;;;;5099443;27;21199;-71
2021/05/02 03:20:06;;;;;;;12.97;9.90;;;6.70;1.00;;;;;;5096280;27;20476;-71
2021/05/02 03:22:48;;;;;;;12.73;9.10;;;6.80;1.00;;;;;;5101705;27;20515;-71
2021/05/02 03:25:14;;;;;;;13.03;10.37;;;6.70;1.00;;;;;;5081368;27;21025;-72
2021/05/02 03:27:48;;;;;;;13.60;9.50;;;6.70;1.00;;;;;;5097849;27;20550;-72
2021/05/02 03:30:16;;;;;;;9.80;8.67;;;6.80;1.00;;;;;;5098183;27;20470;-71
2021/05/02 03:32:47;;;;;;;13.03;9.57;;;6.70;1.00;;;;;;5102223;27;20973;-71
2021/05/02 03:35:14;;;;;;;12.97;8.70;;;6.60;1.00;;;;;;5098141;27;20450;-72
2021/05/02 03:37:45;;;;;;;14.00;8.40;;;6.60;1.00;;;;;;5099952;27;21226;-72
2021/05/02 03:40:11;;;;;;;12.17;8.47;;;6.60;1.00;;;;;;5102952;27;20441;-72
2021/05/02 03:42:37;;;;;;;10.50;7.60;;;6.60;1.00;;;;;;5103414;27;22044;-72
2021/05/02 03:45:04;;;;;;;10.10;8.27;;;6.70;1.00;;;;;;5103955;27;20186;-72
2021/05/02 03:47:29;;;;;;;10.90;7.23;;;6.70;1.00;;;;;;5105331;27;21938;-71
2021/05/02 03:49:55;;;;;;;11.87;8.43;;;6.60;1.00;;;;;;5100392;27;20470;-72
2021/05/02 03:52:21;;;;;;;9.93;6.87;;;6.60;1.00;;;;;;5096619;27;20184;-71
2021/05/02 03:54:51;;;;;;;10.50;6.53;;;6.70;1.00;;;;;;5105432;27;20180;-71
2021/05/02 03:57:17;;;;;;;10.57;7.17;;;6.70;1.00;;;;;;5106459;27;20240;-72
2021/05/02 03:59:43;;;;;;;13.50;7.13;;;6.60;1.00;;;;;;5101652;27;20447;-71
2021/05/02 04:02:08;;;;;;;7.77;6.63;;;6.70;1.00;;;;;;5098856;27;20187;-71
2021/05/02 04:04:36;;;;;;;10.90;6.70;;;6.60;1.00;;;;;;5102884;27;20595;-72
2021/05/02 04:07:04;;;;;;;14.10;8.43;;;6.60;1.00;;;;;;5108624;27;20194;-71
2021/05/02 04:09:30;;;;;;;10.33;8.10;;;6.60;1.00;;;;;;5106582;27;21257;-71
2021/05/02 04:11:56;;;;;;;19.17;7.90;;;6.60;1.00;;;;;;5109247;27;20454;-71
2021/05/02 04:14:22;;;;;;;9.63;7.03;;;6.70;1.00;;;;;;5106279;27;20449;-72
2021/05/02 04:17:14;;;;;;;13.63;9.03;;;6.70;1.00;;;;;;5103782;27;22026;-72
2021/05/02 04:19:43;;;;;;;11.97;8.07;;;6.60;1.00;;;;;;5097134;27;20571;-72
2021/05/02 04:22:16;;;;;;;13.20;9.43;;;6.60;1.00;;;;;;5098683;27;20473;-71
2021/05/02 04:24:43;;;;;;;14.40;10.33;;;6.50;1.00;;;;;;5095984;27;20968;-72
2021/05/02 04:27:10;;;;;;;17.07;12.27;;;6.50;1.00;;;;;;5102710;27;20471;-71
2021/05/02 04:29:37;;;;;;;22.37;13.60;;;6.50;1.00;;;;;;5105851;27;20493;-71
2021/05/02 04:32:03;;;;;;;15.37;10.40;;;6.60;1.00;;;;;;5100029;27;20789;-71
2021/05/02 04:34:29;;;;;;;14.30;10.47;;;6.50;1.00;;;;;;5102061;27;20448;-71
2021/05/02 04:36:56;;;;;;;21.47;13.47;;;6.50;1.00;;;;;;5103177;27;25531;-71
2021/05/02 04:39:22;;;;;;;17.50;12.77;;;6.50;1.00;;;;;;5100194;27;20192;-72
2021/05/02 04:41:49;;;;;;;17.13;12.77;;;6.50;1.00;;;;;;5105293;27;20457;-71
2021/05/02 04:44:16;;;;;;;19.53;13.57;;;6.60;1.00;;;;;;5100643;27;20438;-71
2021/05/02 04:46:41;;;;;;;25.00;16.90;;;6.60;1.00;;;;;;5077795;27;20499;-71
2021/05/02 04:49:08;;;;;;;20.60;14.77;;;6.60;1.00;;;;;;5103210;27;20610;-71
2021/05/02 04:51:35;;;;;;;19.13;14.10;;;6.60;1.00;;;;;;5106580;27;20181;-71
2021/05/02 04:54:01;;;;;;;19.53;14.33;;;6.70;1.00;;;;;;5103802;27;20473;-71
2021/05/02 04:56:27;;;;;;;19.83;14.50;;;6.60;1.00;;;;;;5104533;27;20446;-72
2021/05/02 04:58:53;;;;;;;19.93;13.80;;;6.60;1.00;;;;;;5107850;27;20462;-71
2021/05/02 05:01:20;;;;;;;24.73;14.90;;;6.50;1.00;;;;;;5105090;27;20238;-72
2021/05/02 05:03:46;;;;;;;21.70;14.23;;;6.50;1.00;;;;;;5105060;27;20903;-71
2021/05/02 05:06:12;;;;;;;24.80;15.70;;;6.50;1.00;;;;;;5088585;27;20492;-71
2021/05/02 05:08:39;;;;;;;22.53;15.53;;;6.60;1.00;;;;;;5104438;27;20527;-71
2021/05/02 05:11:05;;;;;;;20.00;14.90;;;6.60;1.00;;;;;;5105874;27;20445;-71
2021/05/02 05:13:31;;;;;;;22.60;15.47;;;6.60;1.00;;;;;;5112901;27;21353;-71
2021/05/02 05:15:58;;;;;;;22.00;14.93;;;6.60;1.00;;;;;;5107891;27;20452;-71
2021/05/02 05:18:24;;;;;;;26.53;15.80;;;6.70;1.00;;;;;;5106001;27;20437;-71
2021/05/02 05:20:52;;;;;;;25.43;15.40;;;6.60;1.00;;;;;;5107182;27;20442;-72
2021/05/02 05:23:18;;;;;;;22.03;14.50;;;6.60;1.00;;;;;;5101623;27;20445;-71
2021/05/02 05:25:43;;;;;;;26.20;14.30;;;6.50;1.00;;;;;;5086179;27;20434;-71
2021/05/02 05:28:09;;;;;;;20.63;13.53;;;6.50;1.00;;;;;;5104198;27;21091;-71
2021/05/02 05:30:36;;;;;;;17.63;12.30;;;6.60;1.00;;;;;;5107413;27;20674;-71
2021/05/02 05:33:03;;;;;;;18.80;11.30;;;6.60;1.00;;;;;;5100574;27;20870;-71
2021/05/02 05:35:29;;;;;;;15.40;10.80;;;6.50;1.00;;;;;;5106503;27;20468;-71
2021/05/02 05:37:55;;;;;;;14.30;11.00;;;6.50;1.00;;;;;;5107110;27;20557;-71
2021/05/02 05:40:21;;;;;;;17.20;12.30;;;6.50;1.00;;;;;;5111736;27;20188;-71
2021/05/02 05:42:46;;;;;;;20.50;12.50;;;6.50;1.00;;;;;;5111342;27;21054;-72
2021/05/02 05:45:13;;;;;;;18.17;15.13;;;6.50;1.00;;;;;;5107101;27;20429;-72
2021/05/02 05:47:39;;;;;;;15.77;12.67;;;6.60;1.00;;;;;;5100869;27;20484;-71
2021/05/02 05:50:11;;;;;;;16.87;11.53;;;6.60;1.00;;;;;;5088637;27;20966;-71
2021/05/02 05:52:37;;;;;;;12.03;8.93;;;6.60;1.00;;;;;;5098080;27;20531;-71
2021/05/02 05:55:04;;;;;;;13.43;10.20;;;6.70;1.00;;;;;;5105986;27;20447;-70
2021/05/02 05:57:29;;;;;;;16.73;9.00;;;6.60;1.00;;;;;;5109178;27;20196;-70
2021/05/02 05:59:55;;;;;;;12.60;9.93;;;6.50;1.00;;;;;;5106747;27;20501;-71
2021/05/02 06:02:21;;;;;;;16.43;10.10;;;6.60;1.00;;;;;;5107447;27;20191;-70
2021/05/02 06:04:47;;;;;;;10.73;8.63;;;6.50;1.00;;;;;;5111376;27;20448;-70
2021/05/02 06:07:12;;;;;;;14.37;8.63;;;6.50;1.00;;;;;;5090409;27;20290;-71
2021/05/02 06:09:38;;;;;;;12.73;7.07;;;6.50;1.00;;;;;;5107015;27;20510;-73
2021/05/02 06:12:05;;;;;;;10.70;6.07;;;6.60;1.00;;;;;;5106651;27;20739;-70
2021/05/02 06:14:30;;;;;;;11.50;6.90;;;6.50;1.00;;;;;;5100492;27;20449;-70
2021/05/02 06:16:56;;;;;;;9.07;6.23;;;6.50;1.00;;;;;;5111004;27;20442;-71
2021/05/02 06:19:22;;;;;;;9.40;6.00;;;6.60;1.00;;;;;;5105593;27;20498;-71
2021/05/02 06:21:48;;;;;;;11.87;6.77;;;6.70;1.00;;;;;;5102577;27;20181;-71
2021/05/02 06:24:13;;;;;;;8.83;5.97;;;6.60;1.00;;;;;;5100667;27;20184;-71
2021/05/02 06:26:39;;;;;;;8.57;5.73;;;6.50;1.00;;;;;;5103440;27;20726;-71
2021/05/02 06:29:05;;;;;;;9.00;5.30;;;6.40;1.00;;;;;;5101835;27;20205;-71
2021/05/02 06:31:31;;;;;;;8.77;5.40;;;6.50;1.00;;;;;;5094815;27;20438;-70
2021/05/02 06:33:57;;;;;;;12.53;5.20;;;6.60;1.00;;;;;;5098386;27;20189;-72
2021/05/02 06:36:22;;;;;;;16.53;6.37;;;6.50;1.00;;;;;;5091345;27;20520;-71
2021/05/02 06:38:48;;;;;;;8.97;5.97;;;6.50;1.00;;;;;;5104595;27;20175;-71
2021/05/02 06:41:14;;;;;;;15.60;5.27;;;6.60;1.00;;;;;;5104976;27;20185;-71
2021/05/02 06:43:40;;;;;;;11.63;5.87;;;6.60;1.00;;;;;;5104324;27;20236;-71
2021/05/02 06:46:06;;;;;;;7.57;5.23;;;6.70;1.00;;;;;;5103955;27;20902;-71
2021/05/02 06:48:32;;;;;;;7.63;5.27;;;6.80;1.00;;;;;;5108496;27;20441;-70
2021/05/02 06:50:58;;;;;;;9.93;4.87;;;6.90;1.00;;;;;;5085345;27;20188;-71
2021/05/02 06:53:24;;;;;;;10.10;5.67;;;6.90;1.00;;;;;;5098272;27;20434;-71
2021/05/02 06:55:50;;;;;;;10.67;5.43;;;6.70;1.00;;;;;;5096574;27;20972;-71
2021/05/02 06:58:15;;;;;;;7.63;4.77;;;6.60;1.00;;;;;;5102817;27;20470;-70
2021/05/02 07:00:41;;;;;;;5.87;4.57;;;6.90;1.00;;;;;;5077038;27;20919;-70
2021/05/02 07:03:08;;;;;;;9.20;6.03;;;6.90;1.00;;;;;;5091315;27;20441;-70
2021/05/02 07:05:34;;;;;;;6.80;4.67;;;7.00;1.00;;;;;;5085532;27;20176;-70
2021/05/02 07:08:00;;;;;;;7.87;5.00;;;7.00;1.00;;;;;;5091307;27;20458;-70
2021/05/02 07:10:27;;;;;;;8.13;5.27;;;7.20;1.00;;;;;;5092562;27;20469;-70
2021/05/02 07:12:53;;;;;;;5.90;4.47;;;7.20;1.00;;;;;;5089464;28;20549;-70
2021/05/02 07:15:19;;;;;;;6.50;4.40;;;7.50;1.00;;;;;;5106156;27;20434;-70
2021/05/02 07:17:45;;;;;;;10.17;4.27;;;7.50;1.00;;;;;;5099111;27;21589;-70
2021/05/02 07:20:13;;;;;;;11.50;4.13;;;7.70;1.00;;;;;;5103172;27;20184;-71
2021/05/02 07:22:38;;;;;;;9.10;4.67;;;7.90;1.00;;;;;;5099597;27;20478;-70
2021/05/02 07:25:05;;;;;;;13.13;5.30;;;7.90;1.00;;;;;;5102431;27;20842;-70
2021/05/02 07:27:31;;;;;;;11.60;5.20;;;7.70;1.00;;;;;;5098545;27;20192;-70
2021/05/02 07:29:57;;;;;;;5.47;4.40;;;7.90;1.00;;;;;;5101917;27;20799;-70
2021/05/02 07:32:22;;;;;;;13.07;4.50;;;7.80;1.00;;;;;;5100878;27;20649;-71
2021/05/02 07:34:48;;;;;;;6.37;4.60;;;7.80;1.00;;;;;;5084388;27;20470;-70
2021/05/02 07:37:14;;;;;;;6.00;3.93;;;7.90;1.00;;;;;;5092909;27;20202;-71
2021/05/02 07:39:43;;;;;;;7.97;3.70;;;8.00;1.00;;;;;;5113571;27;20579;-71
2021/05/02 07:42:09;;;;;;;10.70;3.50;;;7.80;1.00;;;;;;5110181;27;20197;-70
2021/05/02 07:44:35;;;;;;;4.90;3.93;;;7.80;1.00;;;;;;5083836;27;20438;-70
2021/05/02 07:47:00;;;;;;;4.43;3.07;;;7.80;1.00;;;;;;5098798;27;20438;-71
2021/05/02 07:49:26;;;;;;;12.83;3.70;;;8.00;1.00;;;;;;5102245;27;20228;-70
2021/05/02 07:51:52;;;;;;;6.47;3.47;;;8.30;1.00;;;;;;5101624;27;20533;-70
2021/05/02 07:54:17;;;;;;;7.90;3.33;;;8.50;1.00;;;;;;5105864;27;20185;-70
2021/05/02 07:56:43;;;;;;;8.23;3.77;;;8.60;1.00;;;;;;5108641;27;20210;-71
2021/05/02 07:59:09;;;;;;;7.60;3.60;;;8.40;1.00;;;;;;5107987;27;20188;-71
2021/05/02 08:01:35;;;;;;;4.77;3.63;;;8.40;1.00;;;;;;5083621;27;22293;-71
2021/05/02 08:04:00;;;;;;;4.03;3.33;;;8.40;1.00;;;;;;5099959;27;20458;-71
2021/05/02 08:06:26;;;;;;;4.60;3.30;;;8.50;1.00;;;;;;5101955;27;20765;-71
2021/05/02 08:08:53;;;;;;;6.67;3.13;;;8.20;1.00;;;;;;5110874;27;20645;-70
2021/05/02 08:11:19;;;;;;;8.23;4.10;;;8.10;1.00;;;;;;5107805;27;20476;-71
2021/05/02 08:13:45;;;;;;;8.83;3.73;;;8.20;1.00;;;;;;5105926;27;20463;-71
2021/05/02 08:16:11;;;;;;;4.37;3.33;;;8.50;1.00;;;;;;5111600;27;20449;-70
2021/05/02 08:18:36;;;;;;;4.93;2.57;;;8.90;1.00;;;;;;5115413;27;20287;-70
2021/05/02 08:21:09;;;;;;;5.53;2.73;;;9.10;1.00;;;;;;5111095;27;20656;-71
2021/05/02 08:23:35;;;;;;;10.83;3.10;;;9.30;1.00;;;;;;5111399;27;20248;-70
2021/05/02 08:26:02;;;;;;;3.93;2.73;;;9.30;1.00;;;;;;5112930;27;20461;-71
2021/05/02 08:28:28;;;;;;;4.63;3.13;;;8.80;1.00;;;;;;5096118;27;20242;-70
2021/05/02 08:30:54;;;;;;;4.30;2.90;;;8.50;1.00;;;;;;5109856;27;21359;-70
2021/05/02 08:33:20;;;;;;;6.40;2.67;;;8.40;1.00;;;;;;5110690;27;20186;-70
2021/05/02 08:35:48;;;;;;;3.00;2.10;;;8.20;1.00;;;;;;5088419;27;20492;-71
2021/05/02 08:38:15;;;;;;;2.77;2.17;;;8.20;1.00;;;;;;5109348;27;20179;-70
2021/05/02 08:40:41;;;;;;;5.33;2.53;;;8.40;1.00;;;;;;5091342;27;20475;-70
2021/05/02 08:43:08;;;;;;;3.67;2.40;;;8.70;1.00;;;;;;5108396;27;21273;-70
2021/05/02 08:45:36;;;;;;;4.43;2.40;;;9.10;1.00;;;;;;5117178;27;20252;-70
2021/05/02 08:48:02;;;;;;;5.60;2.87;;;9.30;1.00;;;;;;5111636;27;20438;-71
2021/05/02 08:50:28;;;;;;;3.00;2.00;;;9.90;1.00;;;;;;5114090;27;20465;-70
2021/05/02 08:52:57;;;;;;;5.93;2.37;;;10.30;1.00;;;;;;5113534;27;20436;-70
2021/05/02 08:55:23;;;;;;;8.90;3.00;;;10.20;1.00;;;;;;5110560;27;20187;-71
2021/05/02 08:57:48;;;;;;;9.23;3.13;;;9.90;1.00;;;;;;5109991;27;20553;-70
2021/05/02 09:00:15;;;;;;;4.83;2.97;;;9.60;1.00;;;;;;5110065;27;20457;-71
2021/05/02 09:02:56;;;;;;;6.20;2.40;;;9.30;1.00;;;;;;5106059;27;20216;-71
2021/05/02 09:05:22;;;;;;;4.63;3.03;;;8.80;1.00;;;;;;5076861;27;20465;-72
2021/05/02 09:07:48;;;;;;;8.40;3.43;;;8.80;1.00;;;;;;5108067;27;20506;-71
2021/05/02 09:10:21;;;;;;;4.73;3.00;;;8.70;1.00;;;;;;5108148;27;20462;-71
2021/05/02 09:12:59;;;;;;;4.60;2.80;;;8.80;1.00;;;;;;5113047;27;20487;-71
2021/05/02 09:15:25;;;;;;;5.93;3.23;;;9.40;1.00;;;;;;5108431;27;20470;-71
2021/05/02 09:18:00;;;;;;;3.07;2.53;;;9.80;1.00;;;;;;5108235;27;20533;-71
2021/05/02 09:20:49;;;;;;;4.20;3.00;;;9.90;1.00;;;;;;5111405;27;20208;-71
2021/05/02 09:23:17;;;;;;;6.83;3.10;;;9.60;1.00;;;;;;5107090;27;20459;-71
2021/05/02 09:25:51;;;;;;;7.13;3.00;;;9.50;1.00;;;;;;5109093;27;20488;-71
2021/05/02 09:28:31;;;;;;;3.70;2.53;;;9.50;1.00;;;;;;5113994;27;20630;-71
2021/05/02 09:31:08;;;;;;;6.30;2.63;;;9.40;1.00;;;;;;5111404;27;20462;-71
2021/05/02 09:33:35;;;;;;;4.70;2.17;;;9.60;1.00;;;;;;5113841;27;20445;-70
2021/05/02 09:36:03;;;;;;;3.80;2.63;;;9.60;1.00;;;;;;5108302;27;21125;-71
2021/05/02 09:38:31;;;;;;;5.37;2.40;;;9.60;1.00;;;;;;5096304;27;20438;-70
2021/05/02 09:40:59;;;;;;;9.50;2.57;;;9.50;1.00;;;;;;5117323;27;22106;-71
2021/05/02 09:43:30;;;;;;;7.07;2.77;;;9.50;1.00;;;;;;5093779;27;20489;-70
2021/05/02 09:46:33;;;;;;;4.67;2.80;;;9.50;1.00;;;;;;5105125;27;20470;-71
2021/05/02 09:49:18;;;;;;;5.43;3.30;;;9.40;1.00;;;;;;5109411;27;21318;-71
2021/05/02 09:51:46;;;;;;;3.43;2.43;;;9.00;1.00;;;;;;5103207;27;20487;-71
2021/05/02 09:54:25;;;;;;;14.10;3.57;;;9.10;1.00;;;;;;5105399;27;20496;-70
2021/05/02 09:56:52;;;;;;;4.50;2.70;;;9.10;1.00;;;;;;5106176;27;20446;-70
2021/05/02 09:59:24;;;;;;;6.47;2.30;;;9.10;1.00;;;;;;5095839;27;20499;-70
2021/05/02 10:02:11;;;;;;;4.97;2.20;;;9.00;1.00;;;;;;5107546;27;20449;-71
2021/05/02 10:04:42;;;;;;;6.20;2.77;;;9.00;1.00;;;;;;5099208;27;20462;-71
2021/05/02 10:07:16;;;;;;;5.73;2.97;;;9.10;1.00;;;;;;5106455;27;20432;-70
2021/05/02 10:09:45;;;;;;;3.90;2.27;;;9.10;1.00;;;;;;5099461;27;20521;-70
2021/05/02 10:12:12;;;;;;;4.60;2.37;;;9.00;1.00;;;;;;5100101;27;20438;-70
2021/05/02 10:14:39;;;;;;;2.70;2.03;;;8.80;1.00;;;;;;5103587;27;20449;-70
2021/05/02 10:17:06;;;;;;;3.47;2.23;;;8.90;1.00;;;;;;5104285;27;20442;-70
2021/05/02 10:19:32;;;;;;;5.43;2.60;;;9.00;1.00;;;;;;5102644;27;20977;-71
2021/05/02 10:21:59;;;;;;;3.70;2.10;;;9.20;1.00;;;;;;5100550;27;20446;-71
2021/05/02 10:24:25;;;;;;;3.17;1.97;;;9.40;1.00;;;;;;5063377;27;20462;-70
2021/05/02 10:26:52;;;;;;;3.23;2.00;;;9.40;1.00;;;;;;5100376;27;20450;-70
2021/05/02 10:29:22;;;;;;;3.50;2.00;;;9.40;1.00;;;;;;5106063;27;20322;-71
2021/05/02 10:31:51;;;;;;;4.90;2.20;;;9.50;1.00;;;;;;5099347;27;20871;-71
2021/05/02 10:34:27;;;;;;;3.43;2.03;;;9.40;1.00;;;;;;5102935;27;20802;-71
2021/05/02 10:37:26;;;;;;;4.43;2.00;;;9.20;1.00;;;;;;5102488;27;20848;-71
2021/05/02 10:40:21;;;;;;;7.43;2.10;;;9.30;1.00;;;;;;5104077;27;20460;-70
2021/05/02 10:42:54;;;;;;;5.03;1.90;;;9.30;1.00;;;;;;5099079;27;20465;-71
2021/05/02 10:45:48;;;;;;;3.30;2.17;;;9.40;1.00;;;;;;5104374;27;20457;-71
2021/05/02 10:48:13;;;;;;;4.10;2.23;;;9.70;1.00;;;;;;5106855;27;20441;-70
2021/05/02 10:50:47;;;;;;;4.07;1.80;;;10.50;1.00;;;;;;5102844;27;20994;-71
2021/05/02 10:53:14;;;;;;;5.27;2.33;;;10.60;1.00;;;;;;5103761;27;20930;-71
2021/05/02 10:56:04;;;;;;;2.30;1.90;;;10.40;1.00;;;;;;5097447;27;20433;-71
2021/05/02 10:58:35;;;;;;;4.07;2.17;;;10.20;1.00;;;;;;5085643;27;20460;-71
2021/05/02 11:01:09;;;;;;;2.63;2.13;;;10.10;1.00;;;;;;5099868;27;20909;-71
2021/05/02 11:03:35;;;;;;;8.43;2.27;;;9.90;1.00;;;;;;5098348;27;20509;-71
2021/05/02 11:06:02;;;;;;;4.87;2.20;;;9.70;1.00;;;;;;5101799;27;20450;-70
2021/05/02 11:08:51;;;;;;;3.77;1.53;;;9.60;1.00;;;;;;5100860;27;20217;-71
2021/05/02 11:11:32;;;;;;;5.40;2.20;;;9.60;1.00;;;;;;5102733;27;21407;-71
2021/05/02 11:14:21;;;;;;;3.10;1.97;;;9.40;1.00;;;;;;5079140;27;20558;-70
2021/05/02 11:16:50;;;;;;;5.37;2.00;;;9.40;1.00;;;;;;5093036;27;20949;-71
2021/05/02 11:19:24;;;;;;;4.33;1.73;;;9.40;1.00;;;;;;5095824;27;20875;-71
2021/05/02 11:21:51;;;;;;;4.13;1.47;;;9.60;1.00;;;;;;5102764;27;21350;-71
2021/05/02 11:24:49;;;;;;;2.50;1.77;;;9.70;1.00;;;;;;5102300;27;20461;-71
2021/05/02 11:27:37;;;;;;;5.03;2.07;;;9.70;1.00;;;;;;5083787;27;20468;-71
2021/05/02 11:30:05;;;;;;;2.57;1.80;;;9.70;1.00;;;;;;5100899;27;20800;-71
2021/05/02 11:32:37;;;;;;;2.30;1.67;;;9.70;1.00;;;;;;5099776;27;21250;-71
2021/05/02 11:35:09;;;;;;;3.70;1.60;;;9.80;1.00;;;;;;5086515;27;20493;-71
2021/05/02 11:37:59;;;;;;;2.23;1.50;;;9.90;1.00;;;;;;5101043;27;20441;-71
2021/05/02 11:40:25;;;;;;;4.23;1.93;;;10.10;1.00;;;;;;5105087;27;20540;-71
2021/05/02 11:42:57;;;;;;;5.77;1.83;;;10.30;1.00;;;;;;5095306;27;20467;-70
2021/05/02 11:45:26;;;;;;;3.27;1.70;;;10.20;1.00;;;;;;5102753;27;20804;-71
2021/05/02 11:47:52;;;;;;;3.93;2.83;;;10.10;1.00;;;;;;5097776;27;20950;-71
2021/05/02 11:50:18;;;;;;;3.30;1.60;;;10.50;1.00;;;;;;5106275;27;20556;-70
2021/05/02 11:52:45;;;;;;;5.80;1.43;;;11.20;1.00;;;;;;5108544;27;20494;-71
2021/05/02 11:55:36;;;;;;;3.73;1.30;;;11.20;1.00;;;;;;5106591;27;20979;-71
2021/05/02 11:58:07;;;;;;;2.47;1.50;;;11.00;1.00;;;;;;5091699;27;20461;-71
2021/05/02 12:00:41;;;;;;;4.90;1.70;;;10.80;1.00;;;;;;5108145;27;20972;-71
2021/05/02 12:03:08;;;;;;;2.10;1.73;;;10.70;1.00;;;;;;5114462;27;20823;-71
2021/05/02 12:05:56;;;;;;;2.53;1.90;;;10.20;1.00;;;;;;5107456;27;20441;-71
2021/05/02 12:08:25;;;;;;;3.83;1.70;;;9.90;1.00;;;;;;5105489;27;20469;-71
2021/05/02 12:10:55;;;;;;;4.70;2.10;;;9.80;1.00;;;;;;5103246;27;20477;-70
2021/05/02 12:13:38;;;;;;;6.23;2.00;;;9.80;1.00;;;;;;5089654;27;21009;-71
2021/05/02 12:16:11;;;;;;;4.77;2.17;;;10.00;1.00;;;;;;5107758;27;21541;-71
2021/05/02 12:18:54;;;;;;;3.20;1.87;;;10.10;1.00;;;;;;5107180;27;20917;-72
2021/05/02 12:21:43;;;;;;;4.33;1.97;;;10.30;1.00;;;;;;5109622;27;20563;-72
2021/05/02 12:24:10;;;;;;;3.47;1.80;;;10.30;1.00;;;;;;5108770;27;20444;-72
2021/05/02 12:26:47;;;;;;;3.30;1.80;;;10.60;1.00;;;;;;5112771;27;20446;-72
2021/05/02 12:29:16;;;;;;;7.33;2.03;;;10.80;1.00;;;;;;5108254;27;22402;-72
2021/05/02 12:31:42;;;;;;;5.23;2.17;;;10.70;1.00;;;;;;5113756;27;20431;-72
2021/05/02 12:34:11;;;;;;;3.83;2.13;;;10.70;1.00;;;;;;5107160;27;20437;-72
2021/05/02 12:36:37;;;;;;;3.07;1.90;;;10.90;1.00;;;;;;5110315;27;20509;-73
2021/05/02 12:39:11;;;;;;;3.10;2.13;;;11.00;1.00;;;;;;5104291;27;20525;-73
2021/05/02 12:41:38;;;;;;;5.00;1.70;;;11.20;1.00;;;;;;5108225;27;20603;-72
2021/05/02 12:44:23;;;;;;;3.00;2.10;;;11.30;1.00;;;;;;5105199;27;20462;-73
2021/05/02 12:46:51;;;;;;;3.30;2.17;;;11.50;1.00;;;;;;5104293;27;20459;-73
2021/05/02 12:49:28;;;;;;;4.50;2.50;;;11.40;1.00;;;;;;5088388;27;20483;-73
2021/05/02 12:51:59;;;;;;;2.53;1.70;;;11.10;1.00;;;;;;5105388;27;20812;-73
2021/05/02 12:54:27;;;;;;;3.60;2.13;;;10.70;1.00;;;;;;5102500;27;20435;-72
2021/05/02 12:57:09;;;;;;;3.73;1.80;;;10.60;1.00;;;;;;5108507;27;20599;-70
2021/05/02 12:59:53;;;;;;;4.97;1.97;;;10.50;1.00;;;;;;5108713;27;20461;-72
2021/05/02 13:02:22;;;;;;;6.37;2.17;;;10.50;1.00;;;;;;5096520;27;20442;-71
2021/05/02 13:04:57;;;;;;;5.70;2.93;;;10.30;1.00;;;;;;5095044;27;20533;-71
2021/05/02 13:07:37;;;;;;;7.20;2.00;;;10.20;1.00;;;;;;5072649;27;20445;-71
2021/05/02 13:10:23;;;;;;;6.50;1.70;;;10.20;1.00;;;;;;5104519;27;20475;-71